Aviation Digital Data Service (ADDS)

Output produced by METARs form (2013 UTC 23 January 2019)
found at http://www.aviationweather.gov/metar/data/
 
METAR text: LFRJ 232000Z AUTO 01005KT 9999 FEW019/// BKN039/// OVC049/// ///TCU 06/03 Q1009 BECMG SCT035 SCT045 BKN080
Conditions at: LFRJ (LANDIVISIAU (NAV, FR) observed 2000 UTC 23 January 2019
Temperature: 6.0°C (43°F)
Dewpoint: 3.0°C (37°F) [RH = 81%]
Pressure (altimeter): 29.79 inches Hg (1009.0 mb)
Winds: from the N (10 degrees) at 6 MPH (5 knots; 2.6 m/s)
Visibility: 6 or more miles (10+ km)
Ceiling: 3900 feet AGL
Clouds: few clouds at 1900 feet AGL
broken clouds at 3900 feet AGL
overcast cloud deck at 4900 feet AGL
Weather: no significant weather observed at this time

METAR text: LFRJ 231930Z AUTO 34008KT 9999 SCT032/// BKN039/// BKN047/// ///TCU 06/03 Q1009 BECMG SCT035 SCT045 BKN080
Conditions at: LFRJ (LANDIVISIAU (NAV, FR) observed 1930 UTC 23 January 2019
Temperature: 6.0°C (43°F)
Dewpoint: 3.0°C (37°F) [RH = 81%]
Pressure (altimeter): 29.79 inches Hg (1009.0 mb)
Winds: from the NNW (340 degrees) at 9 MPH (8 knots; 4.1 m/s)
Visibility: 6 or more miles (10+ km)
Ceiling: 3900 feet AGL
Clouds: scattered clouds at 3200 feet AGL
broken clouds at 3900 feet AGL
broken clouds at 4700 feet AGL
Weather: no significant weather observed at this time

METAR text: LFRJ 231900Z AUTO 36006KT 9999 FEW034 BKN066 OVC084 06/02 Q1009 NOSIG
Conditions at: LFRJ (LANDIVISIAU (NAV, FR) observed 1900 UTC 23 January 2019
Temperature: 6.0°C (43°F)
Dewpoint: 2.0°C (36°F) [RH = 75%]
Pressure (altimeter): 29.79 inches Hg (1009.0 mb)
Winds: from the N (360 degrees) at 7 MPH (6 knots; 3.1 m/s)
Visibility: 6 or more miles (10+ km)
Ceiling: 6600 feet AGL
Clouds: few clouds at 3400 feet AGL
broken clouds at 6600 feet AGL
overcast cloud deck at 8400 feet AGL
Weather: no significant weather observed at this time

METAR text: LFRJ 231830Z AUTO 36008KT 9999 SCT033 SCT043 BKN068 07/02 Q1009 NOSIG
Conditions at: LFRJ (LANDIVISIAU (NAV, FR) observed 1830 UTC 23 January 2019
Temperature: 7.0°C (45°F)
Dewpoint: 2.0°C (36°F) [RH = 70%]
Pressure (altimeter): 29.79 inches Hg (1009.0 mb)
Winds: from the N (360 degrees) at 9 MPH (8 knots; 4.1 m/s)
Visibility: 6 or more miles (10+ km)
Ceiling: 6800 feet AGL
Clouds: scattered clouds at 3300 feet AGL
scattered clouds at 4300 feet AGL
broken clouds at 6800 feet AGL
Weather: no significant weather observed at this time

METAR text: LFRJ 231800Z AUTO 01010KT 9999 FEW032 SCT042 OVC088 07/02 Q1008 NOSIG
Conditions at: LFRJ (LANDIVISIAU (NAV, FR) observed 1800 UTC 23 January 2019
Temperature: 7.0°C (45°F)
Dewpoint: 2.0°C (36°F) [RH = 70%]
Pressure (altimeter): 29.76 inches Hg (1008.0 mb)
Winds: from the N (10 degrees) at 12 MPH (10 knots; 5.1 m/s)
Visibility: 6 or more miles (10+ km)
Ceiling: 8800 feet AGL
Clouds: few clouds at 3200 feet AGL
scattered clouds at 4200 feet AGL
overcast cloud deck at 8800 feet AGL
Weather: no significant weather observed at this time

METAR text: LFRJ 231730Z AUTO 36009KT 9999 FEW032 OVC092 07/02 Q1008 NOSIG
Conditions at: LFRJ (LANDIVISIAU (NAV, FR) observed 1730 UTC 23 January 2019
Temperature: 7.0°C (45°F)
Dewpoint: 2.0°C (36°F) [RH = 70%]
Pressure (altimeter): 29.76 inches Hg (1008.0 mb)
Winds: from the N (360 degrees) at 10 MPH (9 knots; 4.6 m/s)
Visibility: 6 or more miles (10+ km)
Ceiling: 9200 feet AGL
Clouds: few clouds at 3200 feet AGL
overcast cloud deck at 9200 feet AGL
Weather: no significant weather observed at this time

METAR text: LFRJ 231700Z AUTO 35010KT 9999 FEW040 BKN100 BKN130 07/02 Q1007 NOSIG
Conditions at: LFRJ (LANDIVISIAU (NAV, FR) observed 1700 UTC 23 January 2019
Temperature: 7.0°C (45°F)
Dewpoint: 2.0°C (36°F) [RH = 70%]
Pressure (altimeter): 29.73 inches Hg (1007.0 mb)
Winds: from the N (350 degrees) at 12 MPH (10 knots; 5.1 m/s)
Visibility: 6 or more miles (10+ km)
Ceiling: 10000 feet AGL
Clouds: few clouds at 4000 feet AGL
broken clouds at 10000 feet AGL
broken clouds at 13000 feet AGL
Weather: no significant weather observed at this time

METAR text: LFRJ 231630Z AUTO 35012KT 9999 FEW033 BKN090 OVC120 07/01 Q1007 NOSIG
Conditions at: LFRJ (LANDIVISIAU (NAV, FR) observed 1630 UTC 23 January 2019
Temperature: 7.0°C (45°F)
Dewpoint: 1.0°C (34°F) [RH = 66%]
Pressure (altimeter): 29.73 inches Hg (1007.0 mb)
Winds: from the N (350 degrees) at 14 MPH (12 knots; 6.2 m/s)
Visibility: 6 or more miles (10+ km)
Ceiling: 9000 feet AGL
Clouds: few clouds at 3300 feet AGL
broken clouds at 9000 feet AGL
overcast cloud deck at 12000 feet AGL
Weather: no significant weather observed at this time

METAR text: LFRJ 231600Z AUTO 35012KT 9999 SCT033 BKN043 BKN052 07/02 Q1007 TEMPO 35015G25KT
Conditions at: LFRJ (LANDIVISIAU (NAV, FR) observed 1600 UTC 23 January 2019
Temperature: 7.0°C (45°F)
Dewpoint: 2.0°C (36°F) [RH = 70%]
Pressure (altimeter): 29.73 inches Hg (1007.0 mb)
Winds: from the N (350 degrees) at 14 MPH (12 knots; 6.2 m/s)
Visibility: 6 or more miles (10+ km)
Ceiling: 4300 feet AGL
Clouds: scattered clouds at 3300 feet AGL
broken clouds at 4300 feet AGL
broken clouds at 5200 feet AGL
Weather: no significant weather observed at this time

METAR text: LFRJ 231530Z AUTO 35011KT 9999 SCT035 BKN050 BKN096 07/02 Q1007 TEMPO 35015G25KT
Conditions at: LFRJ (LANDIVISIAU (NAV, FR) observed 1530 UTC 23 January 2019
Temperature: 7.0°C (45°F)
Dewpoint: 2.0°C (36°F) [RH = 70%]
Pressure (altimeter): 29.73 inches Hg (1007.0 mb)
Winds: from the N (350 degrees) at 13 MPH (11 knots; 5.7 m/s)
Visibility: 6 or more miles (10+ km)
Ceiling: 5000 feet AGL
Clouds: scattered clouds at 3500 feet AGL
broken clouds at 5000 feet AGL
broken clouds at 9600 feet AGL
Weather: no significant weather observed at this time

METAR text: LFRJ 231500Z AUTO 35013KT 9999 FEW035 BKN042 BKN048 07/02 Q1007 TEMPO 35015G25KT
Conditions at: LFRJ (LANDIVISIAU (NAV, FR) observed 1500 UTC 23 January 2019
Temperature: 7.0°C (45°F)
Dewpoint: 2.0°C (36°F) [RH = 70%]
Pressure (altimeter): 29.73 inches Hg (1007.0 mb)
Winds: from the N (350 degrees) at 15 MPH (13 knots; 6.7 m/s)
Visibility: 6 or more miles (10+ km)
Ceiling: 4200 feet AGL
Clouds: few clouds at 3500 feet AGL
broken clouds at 4200 feet AGL
broken clouds at 4800 feet AGL
Weather: no significant weather observed at this time

METAR text: LFRJ 231430Z AUTO 35013KT 9999 FEW036 BKN045 BKN110 07/02 Q1006 TEMPO 35015G25KT
Conditions at: LFRJ (LANDIVISIAU (NAV, FR) observed 1430 UTC 23 January 2019
Temperature: 7.0°C (45°F)
Dewpoint: 2.0°C (36°F) [RH = 70%]
Pressure (altimeter): 29.70 inches Hg (1006.0 mb)
Winds: from the N (350 degrees) at 15 MPH (13 knots; 6.7 m/s)
Visibility: 6 or more miles (10+ km)
Ceiling: 4500 feet AGL
Clouds: few clouds at 3600 feet AGL
broken clouds at 4500 feet AGL
broken clouds at 11000 feet AGL
Weather: no significant weather observed at this time

METAR text: LFRJ 231400Z AUTO 36014KT 9999 SCT039 SCT050 OVC120 07/01 Q1006 TEMPO 34015G25KT
Conditions at: LFRJ (LANDIVISIAU (NAV, FR) observed 1400 UTC 23 January 2019
Temperature: 7.0°C (45°F)
Dewpoint: 1.0°C (34°F) [RH = 66%]
Pressure (altimeter): 29.70 inches Hg (1006.0 mb)
Winds: from the N (360 degrees) at 16 MPH (14 knots; 7.2 m/s)
Visibility: 6 or more miles (10+ km)
Ceiling: 12000 feet AGL
Clouds: scattered clouds at 3900 feet AGL
scattered clouds at 5000 feet AGL
overcast cloud deck at 12000 feet AGL
Weather: no significant weather observed at this time

METAR text: LFRJ 231330Z AUTO 35013KT 9999 SCT037 BKN048 BKN110 07/01 Q1006 TEMPO 34015G25KT
Conditions at: LFRJ (LANDIVISIAU (NAV, FR) observed 1330 UTC 23 January 2019
Temperature: 7.0°C (45°F)
Dewpoint: 1.0°C (34°F) [RH = 66%]
Pressure (altimeter): 29.70 inches Hg (1006.0 mb)
Winds: from the N (350 degrees) at 15 MPH (13 knots; 6.7 m/s)
Visibility: 6 or more miles (10+ km)
Ceiling: 4800 feet AGL
Clouds: scattered clouds at 3700 feet AGL
broken clouds at 4800 feet AGL
broken clouds at 11000 feet AGL
Weather: no significant weather observed at this time

METAR text: LFRJ 231300Z AUTO 36016KT 9999 SCT039 BKN047 BKN110 07/01 Q1006 TEMPO 34015G25KT
Conditions at: LFRJ (LANDIVISIAU (NAV, FR) observed 1300 UTC 23 January 2019
Temperature: 7.0°C (45°F)
Dewpoint: 1.0°C (34°F) [RH = 66%]
Pressure (altimeter): 29.70 inches Hg (1006.0 mb)
Winds: from the N (360 degrees) at 18 MPH (16 knots; 8.2 m/s)
Visibility: 6 or more miles (10+ km)
Ceiling: 4700 feet AGL
Clouds: scattered clouds at 3900 feet AGL
broken clouds at 4700 feet AGL
broken clouds at 11000 feet AGL
Weather: no significant weather observed at this time

METAR text: LFRJ 231230Z AUTO 35018KT 9999 SCT038 BKN100 BKN130 08/01 Q1006 TEMPO 34015G25KT
Conditions at: LFRJ (LANDIVISIAU (NAV, FR) observed 1230 UTC 23 January 2019
Temperature: 8.0°C (46°F)
Dewpoint: 1.0°C (34°F) [RH = 61%]
Pressure (altimeter): 29.70 inches Hg (1006.0 mb)
Winds: from the N (350 degrees) at 21 MPH (18 knots; 9.3 m/s)
Visibility: 6 or more miles (10+ km)
Ceiling: 10000 feet AGL
Clouds: scattered clouds at 3800 feet AGL
broken clouds at 10000 feet AGL
broken clouds at 13000 feet AGL
Weather: no significant weather observed at this time

METAR text: LFRJ 231200Z AUTO 35018KT 9999 SCT037 BKN052 BKN190 08/01 Q1005 TEMPO 34015G25KT
Conditions at: LFRJ (LANDIVISIAU (NAV, FR) observed 1200 UTC 23 January 2019
Temperature: 8.0°C (46°F)
Dewpoint: 1.0°C (34°F) [RH = 61%]
Pressure (altimeter): 29.68 inches Hg (1005.0 mb)
Winds: from the N (350 degrees) at 21 MPH (18 knots; 9.3 m/s)
Visibility: 6 or more miles (10+ km)
Ceiling: 5200 feet AGL
Clouds: scattered clouds at 3700 feet AGL
broken clouds at 5200 feet AGL
broken clouds at 19000 feet AGL
Weather: no significant weather observed at this time

METAR text: LFRJ 231130Z AUTO 36015KT 9999 FEW025/// BKN033/// BKN041/// 07/02 Q1005 TEMPO 34015G25KT
Conditions at: LFRJ (LANDIVISIAU (NAV, FR) observed 1130 UTC 23 January 2019
Temperature: 7.0°C (45°F)
Dewpoint: 2.0°C (36°F) [RH = 70%]
Pressure (altimeter): 29.68 inches Hg (1005.0 mb)
Winds: from the N (360 degrees) at 17 MPH (15 knots; 7.7 m/s)
Visibility: 6 or more miles (10+ km)
Ceiling: 3300 feet AGL
Clouds: few clouds at 2500 feet AGL
broken clouds at 3300 feet AGL
broken clouds at 4100 feet AGL
Weather: no significant weather observed at this time

METAR text: LFRJ 231100Z AUTO 34017KT 9999 FEW034/// SCT045/// BKN066/// ///TCU 08/02 Q1005 TEMPO 35016G26KT 4000 SHRA BECMG SCT030 SCT040
Conditions at: LFRJ (LANDIVISIAU (NAV, FR) observed 1100 UTC 23 January 2019
Temperature: 8.0°C (46°F)
Dewpoint: 2.0°C (36°F) [RH = 66%]
Pressure (altimeter): 29.68 inches Hg (1005.0 mb)
Winds: from the NNW (340 degrees) at 20 MPH (17 knots; 8.7 m/s)
Visibility: 6 or more miles (10+ km)
Ceiling: 6600 feet AGL
Clouds: few clouds at 3400 feet AGL
scattered clouds at 4500 feet AGL
broken clouds at 6600 feet AGL
Weather: no significant weather observed at this time

METAR text: LFRJ 231030Z AUTO 35016KT 9999 BKN036 BKN062 BKN130 07/02 Q1005 TEMPO 35016G26KT 4000 SHRA BKN019TCU
Conditions at: LFRJ (LANDIVISIAU (NAV, FR) observed 1030 UTC 23 January 2019
Temperature: 7.0°C (45°F)
Dewpoint: 2.0°C (36°F) [RH = 70%]
Pressure (altimeter): 29.68 inches Hg (1005.0 mb)
Winds: from the N (350 degrees) at 18 MPH (16 knots; 8.2 m/s)
Visibility: 6 or more miles (10+ km)
Ceiling: 3600 feet AGL
Clouds: broken clouds at 3600 feet AGL
broken clouds at 6200 feet AGL
broken clouds at 13000 feet AGL
Weather: no significant weather observed at this time

METAR text: LFRJ 231000Z AUTO 34015KT 9999 BKN034 BKN042 BKN049 07/02 Q1004 TEMPO 35016G26KT 4000 SHRA BKN019TCU
Conditions at: LFRJ (LANDIVISIAU (NAV, FR) observed 1000 UTC 23 January 2019
Temperature: 7.0°C (45°F)
Dewpoint: 2.0°C (36°F) [RH = 70%]
Pressure (altimeter): 29.65 inches Hg (1004.0 mb)
Winds: from the NNW (340 degrees) at 17 MPH (15 knots; 7.7 m/s)
Visibility: 6 or more miles (10+ km)
Ceiling: 3400 feet AGL
Clouds: broken clouds at 3400 feet AGL
broken clouds at 4200 feet AGL
broken clouds at 4900 feet AGL
Weather: no significant weather observed at this time

METAR text: LFRJ 230930Z AUTO 34013KT 9999 BKN030 BKN036 BKN074 07/02 Q1004 TEMPO 35016G26KT 4000 SHRA BKN019TCU
Conditions at: LFRJ (LANDIVISIAU (NAV, FR) observed 0930 UTC 23 January 2019
Temperature: 7.0°C (45°F)
Dewpoint: 2.0°C (36°F) [RH = 70%]
Pressure (altimeter): 29.65 inches Hg (1004.0 mb)
Winds: from the NNW (340 degrees) at 15 MPH (13 knots; 6.7 m/s)
Visibility: 6 or more miles (10+ km)
Ceiling: 3000 feet AGL
Clouds: broken clouds at 3000 feet AGL
broken clouds at 3600 feet AGL
broken clouds at 7400 feet AGL
Weather: no significant weather observed at this time

METAR text: LFRJ 230900Z AUTO 34013KT 9999 FEW028 SCT033 BKN044 06/03 Q1004 TEMPO 35016G26KT 4000 SHRA BKN019TCU
Conditions at: LFRJ (LANDIVISIAU (NAV, FR) observed 0900 UTC 23 January 2019
Temperature: 6.0°C (43°F)
Dewpoint: 3.0°C (37°F) [RH = 81%]
Pressure (altimeter): 29.65 inches Hg (1004.0 mb)
Winds: from the NNW (340 degrees) at 15 MPH (13 knots; 6.7 m/s)
Visibility: 6 or more miles (10+ km)
Ceiling: 4400 feet AGL
Clouds: few clouds at 2800 feet AGL
scattered clouds at 3300 feet AGL
broken clouds at 4400 feet AGL
Weather: no significant weather observed at this time

METAR text: LFRJ 230830Z AUTO 34013KT 9999 SCT034 SCT043 BKN056 06/02 Q1004 TEMPO 35016G26KT 4000 SHRA BKN019TCU
Conditions at: LFRJ (LANDIVISIAU (NAV, FR) observed 0830 UTC 23 January 2019
Temperature: 6.0°C (43°F)
Dewpoint: 2.0°C (36°F) [RH = 75%]
Pressure (altimeter): 29.65 inches Hg (1004.0 mb)
Winds: from the NNW (340 degrees) at 15 MPH (13 knots; 6.7 m/s)
Visibility: 6 or more miles (10+ km)
Ceiling: 5600 feet AGL
Clouds: scattered clouds at 3400 feet AGL
scattered clouds at 4300 feet AGL
broken clouds at 5600 feet AGL
Weather: no significant weather observed at this time

METAR text: LFRJ 230800Z AUTO 33011KT 300V360 9999 FEW011/// SCT031/// BKN050/// ///CB 05/03 Q1003 TEMPO 35016G26KT 4000 SHRA
Conditions at: LFRJ (LANDIVISIAU (NAV, FR) observed 0800 UTC 23 January 2019
Temperature: 5.0°C (41°F)
Dewpoint: 3.0°C (37°F) [RH = 87%]
Pressure (altimeter): 29.62 inches Hg (1003.0 mb)
Winds: from the NNW (330 degrees) at 13 MPH (11 knots; 5.7 m/s)
Visibility: 6 or more miles (10+ km)
Ceiling: 5000 feet AGL
Clouds: few clouds at 1100 feet AGL
scattered clouds at 3100 feet AGL
broken clouds at 5000 feet AGL
Weather: no significant weather observed at this time

METAR text: LFRJ 230730Z AUTO 34011KT 9999 -RA FEW012/// SCT024/// BKN032/// ///TCU 05/03 Q1003 TEMPO 35016G26KT 4000 SHRA
Conditions at: LFRJ (LANDIVISIAU (NAV, FR) observed 0730 UTC 23 January 2019
Temperature: 5.0°C (41°F)
Dewpoint: 3.0°C (37°F) [RH = 87%]
Pressure (altimeter): 29.62 inches Hg (1003.0 mb)
Winds: from the NNW (340 degrees) at 13 MPH (11 knots; 5.7 m/s)
Visibility: 6 or more miles (10+ km)
Ceiling: 3200 feet AGL
Clouds: few clouds at 1200 feet AGL
scattered clouds at 2400 feet AGL
broken clouds at 3200 feet AGL
Weather: -RA  (light rain)

METAR text: LFRJ 230700Z AUTO 34013KT 9999 FEW030/// SCT045/// BKN060/// ///TCU 06/02 Q1002 TEMPO 35016G26KT 4000 SHRA
Conditions at: LFRJ (LANDIVISIAU (NAV, FR) observed 0700 UTC 23 January 2019
Temperature: 6.0°C (43°F)
Dewpoint: 2.0°C (36°F) [RH = 75%]
Pressure (altimeter): 29.59 inches Hg (1002.0 mb)
Winds: from the NNW (340 degrees) at 15 MPH (13 knots; 6.7 m/s)
Visibility: 6 or more miles (10+ km)
Ceiling: 6000 feet AGL
Clouds: few clouds at 3000 feet AGL
scattered clouds at 4500 feet AGL
broken clouds at 6000 feet AGL
Weather: no significant weather observed at this time

METAR text: LFRJ 230630Z AUTO 35011KT 9999 FEW034 BKN070 BKN080 06/03 Q1002 TEMPO 35016G26KT 4000 SHRA BKN019TCU
Conditions at: LFRJ (LANDIVISIAU (NAV, FR) observed 0630 UTC 23 January 2019
Temperature: 6.0°C (43°F)
Dewpoint: 3.0°C (37°F) [RH = 81%]
Pressure (altimeter): 29.59 inches Hg (1002.0 mb)
Winds: from the N (350 degrees) at 13 MPH (11 knots; 5.7 m/s)
Visibility: 6 or more miles (10+ km)
Ceiling: 7000 feet AGL
Clouds: few clouds at 3400 feet AGL
broken clouds at 7000 feet AGL
broken clouds at 8000 feet AGL
Weather: no significant weather observed at this time

METAR text: LFRJ 230600Z AUTO 35014KT 9999 FEW019/// SCT039/// BKN074/// ///TCU 05/02 Q1002 TEMPO 35016G26KT 4000 SHRA
Conditions at: LFRJ (LANDIVISIAU (NAV, FR) observed 0600 UTC 23 January 2019
Temperature: 5.0°C (41°F)
Dewpoint: 2.0°C (36°F) [RH = 81%]
Pressure (altimeter): 29.59 inches Hg (1002.0 mb)
Winds: from the N (350 degrees) at 16 MPH (14 knots; 7.2 m/s)
Visibility: 6 or more miles (10+ km)
Ceiling: 7400 feet AGL
Clouds: few clouds at 1900 feet AGL
scattered clouds at 3900 feet AGL
broken clouds at 7400 feet AGL
Weather: no significant weather observed at this time

METAR text: LFRJ 230530Z AUTO 33013KT 9999 SCT018/// BKN026/// BKN036/// ///CB 05/03 Q1002 TEMPO 35016G26KT 4000 SHRA
Conditions at: LFRJ (LANDIVISIAU (NAV, FR) observed 0530 UTC 23 January 2019
Temperature: 5.0°C (41°F)
Dewpoint: 3.0°C (37°F) [RH = 87%]
Pressure (altimeter): 29.59 inches Hg (1002.0 mb)
Winds: from the NNW (330 degrees) at 15 MPH (13 knots; 6.7 m/s)
Visibility: 6 or more miles (10+ km)
Ceiling: 2600 feet AGL
Clouds: scattered clouds at 1800 feet AGL
broken clouds at 2600 feet AGL
broken clouds at 3600 feet AGL
Weather: no significant weather observed at this time

METAR text: LFRJ 230500Z AUTO 36011KT 9999 FEW017/// BKN028/// BKN050/// ///TCU 06/03 Q1001
Conditions at: LFRJ (LANDIVISIAU (NAV, FR) observed 0500 UTC 23 January 2019
Temperature: 6.0°C (43°F)
Dewpoint: 3.0°C (37°F) [RH = 81%]
Pressure (altimeter): 29.56 inches Hg (1001.0 mb)
Winds: from the N (360 degrees) at 13 MPH (11 knots; 5.7 m/s)
Visibility: 6 or more miles (10+ km)
Ceiling: 2800 feet AGL
Clouds: few clouds at 1700 feet AGL
broken clouds at 2800 feet AGL
broken clouds at 5000 feet AGL
Weather: no significant weather observed at this time

METAR text: LFRJ 230430Z AUTO 36013KT 9999 FEW021/// BKN038/// BKN062/// ///TCU 06/03 Q1001
Conditions at: LFRJ (LANDIVISIAU (NAV, FR) observed 0430 UTC 23 January 2019
Temperature: 6.0°C (43°F)
Dewpoint: 3.0°C (37°F) [RH = 81%]
Pressure (altimeter): 29.56 inches Hg (1001.0 mb)
Winds: from the N (360 degrees) at 15 MPH (13 knots; 6.7 m/s)
Visibility: 6 or more miles (10+ km)
Ceiling: 3800 feet AGL
Clouds: few clouds at 2100 feet AGL
broken clouds at 3800 feet AGL
broken clouds at 6200 feet AGL
Weather: no significant weather observed at this time

METAR text: LFRJ 230400Z AUTO 34014KT 9999 BKN029/// BKN037/// BKN060/// ///TCU 07/03 Q1000
Conditions at: LFRJ (LANDIVISIAU (NAV, FR) observed 0400 UTC 23 January 2019
Temperature: 7.0°C (45°F)
Dewpoint: 3.0°C (37°F) [RH = 76%]
Pressure (altimeter): 29.53 inches Hg (1000.0 mb)
Winds: from the NNW (340 degrees) at 16 MPH (14 knots; 7.2 m/s)
Visibility: 6 or more miles (10+ km)
Ceiling: 2900 feet AGL
Clouds: broken clouds at 2900 feet AGL
broken clouds at 3700 feet AGL
broken clouds at 6000 feet AGL
Weather: no significant weather observed at this time

METAR text: LFRJ 230330Z AUTO 32012KT 9999 FEW025 SCT033 BKN047 06/04 Q1000
Conditions at: LFRJ (LANDIVISIAU (NAV, FR) observed 0330 UTC 23 January 2019
Temperature: 6.0°C (43°F)
Dewpoint: 4.0°C (39°F) [RH = 87%]
Pressure (altimeter): 29.53 inches Hg (1000.0 mb)
Winds: from the NW (320 degrees) at 14 MPH (12 knots; 6.2 m/s)
Visibility: 6 or more miles (10+ km)
Ceiling: 4700 feet AGL
Clouds: few clouds at 2500 feet AGL
scattered clouds at 3300 feet AGL
broken clouds at 4700 feet AGL
Weather: no significant weather observed at this time

METAR text: LFRJ 230300Z AUTO 33013G24KT 9999 FEW013/// BKN028/// BKN039/// ///TCU 07/04 Q1000
Conditions at: LFRJ (LANDIVISIAU (NAV, FR) observed 0300 UTC 23 January 2019
Temperature: 7.0°C (45°F)
Dewpoint: 4.0°C (39°F) [RH = 81%]
Pressure (altimeter): 29.53 inches Hg (1000.0 mb)
Winds: from the NNW (330 degrees) at 15 MPH (13 knots; 6.7 m/s)
gusting to 28 MPH (24 knots; 12.3 m/s)
Visibility: 6 or more miles (10+ km)
Ceiling: 2800 feet AGL
Clouds: few clouds at 1300 feet AGL
broken clouds at 2800 feet AGL
broken clouds at 3900 feet AGL
Weather: no significant weather observed at this time

METAR text: LFRJ 230230Z AUTO 35012KT 9999 +RA BKN027/// BKN035/// BKN045/// ///TCU 06/03 Q1000
Conditions at: LFRJ (LANDIVISIAU (NAV, FR) observed 0230 UTC 23 January 2019
Temperature: 6.0°C (43°F)
Dewpoint: 3.0°C (37°F) [RH = 81%]
Pressure (altimeter): 29.53 inches Hg (1000.0 mb)
Winds: from the N (350 degrees) at 14 MPH (12 knots; 6.2 m/s)
Visibility: 6 or more miles (10+ km)
Ceiling: 2700 feet AGL
Clouds: broken clouds at 2700 feet AGL
broken clouds at 3500 feet AGL
broken clouds at 4500 feet AGL
Weather: +RA  (heavy rain)

METAR text: LFRJ 230200Z AUTO 32012KT 9999 FEW031/// SCT048/// BKN062/// ///CB 07/05 Q1000
Conditions at: LFRJ (LANDIVISIAU (NAV, FR) observed 0200 UTC 23 January 2019
Temperature: 7.0°C (45°F)
Dewpoint: 5.0°C (41°F) [RH = 87%]
Pressure (altimeter): 29.53 inches Hg (1000.0 mb)
Winds: from the NW (320 degrees) at 14 MPH (12 knots; 6.2 m/s)
Visibility: 6 or more miles (10+ km)
Ceiling: 6200 feet AGL
Clouds: few clouds at 3100 feet AGL
scattered clouds at 4800 feet AGL
broken clouds at 6200 feet AGL
Weather: no significant weather observed at this time

METAR text: LFRJ 230130Z AUTO 30007KT 9999 BKN022 BKN034 BKN052 06/04 Q1000
Conditions at: LFRJ (LANDIVISIAU (NAV, FR) observed 0130 UTC 23 January 2019
Temperature: 6.0°C (43°F)
Dewpoint: 4.0°C (39°F) [RH = 87%]
Pressure (altimeter): 29.53 inches Hg (1000.0 mb)
Winds: from the WNW (300 degrees) at 8 MPH (7 knots; 3.6 m/s)
Visibility: 6 or more miles (10+ km)
Ceiling: 2200 feet AGL
Clouds: broken clouds at 2200 feet AGL
broken clouds at 3400 feet AGL
broken clouds at 5200 feet AGL
Weather: no significant weather observed at this time

METAR text: LFRJ 230100Z AUTO 30007KT 9999 SCT023 BKN032 BKN045 06/04 Q1000
Conditions at: LFRJ (LANDIVISIAU (NAV, FR) observed 0100 UTC 23 January 2019
Temperature: 6.0°C (43°F)
Dewpoint: 4.0°C (39°F) [RH = 87%]
Pressure (altimeter): 29.53 inches Hg (1000.0 mb)
Winds: from the WNW (300 degrees) at 8 MPH (7 knots; 3.6 m/s)
Visibility: 6 or more miles (10+ km)
Ceiling: 3200 feet AGL
Clouds: scattered clouds at 2300 feet AGL
broken clouds at 3200 feet AGL
broken clouds at 4500 feet AGL
Weather: no significant weather observed at this time

METAR text: LFRJ 230030Z AUTO 30007KT 9999 FEW024 BKN030 BKN046 06/04 Q1000
Conditions at: LFRJ (LANDIVISIAU (NAV, FR) observed 0030 UTC 23 January 2019
Temperature: 6.0°C (43°F)
Dewpoint: 4.0°C (39°F) [RH = 87%]
Pressure (altimeter): 29.53 inches Hg (1000.0 mb)
Winds: from the WNW (300 degrees) at 8 MPH (7 knots; 3.6 m/s)
Visibility: 6 or more miles (10+ km)
Ceiling: 3000 feet AGL
Clouds: few clouds at 2400 feet AGL
broken clouds at 3000 feet AGL
broken clouds at 4600 feet AGL
Weather: no significant weather observed at this time

METAR text: LFRJ 230000Z AUTO 30005KT 9999 FEW026 BKN056 BKN066 05/04 Q1000
Conditions at: LFRJ (LANDIVISIAU (NAV, FR) observed 0000 UTC 23 January 2019
Temperature: 5.0°C (41°F)
Dewpoint: 4.0°C (39°F) [RH = 93%]
Pressure (altimeter): 29.53 inches Hg (1000.0 mb)
Winds: from the WNW (300 degrees) at 6 MPH (5 knots; 2.6 m/s)
Visibility: 6 or more miles (10+ km)
Ceiling: 5600 feet AGL
Clouds: few clouds at 2600 feet AGL
broken clouds at 5600 feet AGL
broken clouds at 6600 feet AGL
Weather: no significant weather observed at this time

METAR text: LFRJ 222330Z AUTO 28003KT CAVOK 06/05 Q1000
Conditions at: LFRJ (LANDIVISIAU (NAV, FR) observed 2330 UTC 22 January 2019
Temperature: 6.0°C (43°F)
Dewpoint: 5.0°C (41°F) [RH = 93%]
Pressure (altimeter): 29.53 inches Hg (1000.0 mb)
Winds: from the W (280 degrees) at 3 MPH (3 knots; 1.5 m/s)
Visibility: 6 or more miles (10+ km)
Ceiling: ceiling and visibility are OK
Clouds: unknown
Weather: no significant weather observed at this time

METAR text: LFRJ 222300Z AUTO 28005KT 9999 FEW017/// SCT042/// OVC064/// ///TCU 06/05 Q1000
Conditions at: LFRJ (LANDIVISIAU (NAV, FR) observed 2300 UTC 22 January 2019
Temperature: 6.0°C (43°F)
Dewpoint: 5.0°C (41°F) [RH = 93%]
Pressure (altimeter): 29.53 inches Hg (1000.0 mb)
Winds: from the W (280 degrees) at 6 MPH (5 knots; 2.6 m/s)
Visibility: 6 or more miles (10+ km)
Ceiling: 6400 feet AGL
Clouds: few clouds at 1700 feet AGL
scattered clouds at 4200 feet AGL
overcast cloud deck at 6400 feet AGL
Weather: no significant weather observed at this time

METAR text: LFRJ 222230Z AUTO 01004KT 310V040 9999 -RA FEW011/// BKN017/// BKN025/// ///TCU 06/05 Q1001
Conditions at: LFRJ (LANDIVISIAU (NAV, FR) observed 2230 UTC 22 January 2019
Temperature: 6.0°C (43°F)
Dewpoint: 5.0°C (41°F) [RH = 93%]
Pressure (altimeter): 29.56 inches Hg (1001.0 mb)
Winds: from the N (10 degrees) at 5 MPH (4 knots; 2.1 m/s)
Visibility: 6 or more miles (10+ km)
Ceiling: 1700 feet AGL
Clouds: few clouds at 1100 feet AGL
broken clouds at 1700 feet AGL
broken clouds at 2500 feet AGL
Weather: -RA  (light rain)

METAR text: LFRJ 222200Z AUTO 29009KT 9999 -RA BKN017/// BKN024/// BKN036/// ///TCU 06/05 Q1001
Conditions at: LFRJ (LANDIVISIAU (NAV, FR) observed 2200 UTC 22 January 2019
Temperature: 6.0°C (43°F)
Dewpoint: 5.0°C (41°F) [RH = 93%]
Pressure (altimeter): 29.56 inches Hg (1001.0 mb)
Winds: from the WNW (290 degrees) at 10 MPH (9 knots; 4.6 m/s)
Visibility: 6 or more miles (10+ km)
Ceiling: 1700 feet AGL
Clouds: broken clouds at 1700 feet AGL
broken clouds at 2400 feet AGL
broken clouds at 3600 feet AGL
Weather: -RA  (light rain)

METAR text: LFRJ 222130Z AUTO 28007KT 9999 FEW014 OVC054 06/04 Q1001
Conditions at: LFRJ (LANDIVISIAU (NAV, FR) observed 2130 UTC 22 January 2019
Temperature: 6.0°C (43°F)
Dewpoint: 4.0°C (39°F) [RH = 87%]
Pressure (altimeter): 29.56 inches Hg (1001.0 mb)
Winds: from the W (280 degrees) at 8 MPH (7 knots; 3.6 m/s)
Visibility: 6 or more miles (10+ km)
Ceiling: 5400 feet AGL
Clouds: few clouds at 1400 feet AGL
overcast cloud deck at 5400 feet AGL
Weather: no significant weather observed at this time

METAR text: LFRJ 222100Z AUTO 28007KT 9999 FEW024 BKN066 OVC078 06/04 Q1002
Conditions at: LFRJ (LANDIVISIAU (NAV, FR) observed 2100 UTC 22 January 2019
Temperature: 6.0°C (43°F)
Dewpoint: 4.0°C (39°F) [RH = 87%]
Pressure (altimeter): 29.59 inches Hg (1002.0 mb)
Winds: from the W (280 degrees) at 8 MPH (7 knots; 3.6 m/s)
Visibility: 6 or more miles (10+ km)
Ceiling: 6600 feet AGL
Clouds: few clouds at 2400 feet AGL
broken clouds at 6600 feet AGL
overcast cloud deck at 7800 feet AGL
Weather: no significant weather observed at this time

METAR text: LFRJ 222030Z AUTO 29006KT 9999 FEW029 SCT070 BKN084 06/04 Q1002 TEMPO 4000 SHRA BKN015TCU
Conditions at: LFRJ (LANDIVISIAU (NAV, FR) observed 2030 UTC 22 January 2019
Temperature: 6.0°C (43°F)
Dewpoint: 4.0°C (39°F) [RH = 87%]
Pressure (altimeter): 29.59 inches Hg (1002.0 mb)
Winds: from the WNW (290 degrees) at 7 MPH (6 knots; 3.1 m/s)
Visibility: 6 or more miles (10+ km)
Ceiling: 8400 feet AGL
Clouds: few clouds at 2900 feet AGL
scattered clouds at 7000 feet AGL
broken clouds at 8400 feet AGL
Weather: no significant weather observed at this time

METAR text: LFRJ 222000Z AUTO 29009KT CAVOK 06/04 Q1003 TEMPO 4000 SHRA BKN015TCU
Conditions at: LFRJ (LANDIVISIAU (NAV, FR) observed 2000 UTC 22 January 2019
Temperature: 6.0°C (43°F)
Dewpoint: 4.0°C (39°F) [RH = 87%]
Pressure (altimeter): 29.62 inches Hg (1003.0 mb)
Winds: from the WNW (290 degrees) at 10 MPH (9 knots; 4.6 m/s)
Visibility: 6 or more miles (10+ km)
Ceiling: ceiling and visibility are OK
Clouds: unknown
Weather: no significant weather observed at this time

METAR text: LFRJ 221930Z AUTO 28009KT 9999 FEW027 OVC094 06/04 Q1003 TEMPO 4000 SHRA BKN015TCU
Conditions at: LFRJ (LANDIVISIAU (NAV, FR) observed 1930 UTC 22 January 2019
Temperature: 6.0°C (43°F)
Dewpoint: 4.0°C (39°F) [RH = 87%]
Pressure (altimeter): 29.62 inches Hg (1003.0 mb)
Winds: from the W (280 degrees) at 10 MPH (9 knots; 4.6 m/s)
Visibility: 6 or more miles (10+ km)
Ceiling: 9400 feet AGL
Clouds: few clouds at 2700 feet AGL
overcast cloud deck at 9400 feet AGL
Weather: no significant weather observed at this time

METAR text: LFRJ 221900Z AUTO 28009KT 260V320 9999 BKN023 BKN032 BKN042 06/04 Q1003 TEMPO 4000 SHRA BKN015TCU
Conditions at: LFRJ (LANDIVISIAU (NAV, FR) observed 1900 UTC 22 January 2019
Temperature: 6.0°C (43°F)
Dewpoint: 4.0°C (39°F) [RH = 87%]
Pressure (altimeter): 29.62 inches Hg (1003.0 mb)
Winds: from the W (280 degrees) at 10 MPH (9 knots; 4.6 m/s)
Visibility: 6 or more miles (10+ km)
Ceiling: 2300 feet AGL
Clouds: broken clouds at 2300 feet AGL
broken clouds at 3200 feet AGL
broken clouds at 4200 feet AGL
Weather: no significant weather observed at this time

METAR text: LFRJ 221830Z AUTO 29007KT 9999 FEW026 OVC096 06/03 Q1003 TEMPO 4000 SHRA BKN015TCU
Conditions at: LFRJ (LANDIVISIAU (NAV, FR) observed 1830 UTC 22 January 2019
Temperature: 6.0°C (43°F)
Dewpoint: 3.0°C (37°F) [RH = 81%]
Pressure (altimeter): 29.62 inches Hg (1003.0 mb)
Winds: from the WNW (290 degrees) at 8 MPH (7 knots; 3.6 m/s)
Visibility: 6 or more miles (10+ km)
Ceiling: 9600 feet AGL
Clouds: few clouds at 2600 feet AGL
overcast cloud deck at 9600 feet AGL
Weather: no significant weather observed at this time

METAR text: LFRJ 221800Z AUTO 30005KT 9999 FEW013/// SCT022/// BKN029/// ///TCU 05/04 Q1003 TEMPO 4000 SHRA
Conditions at: LFRJ (LANDIVISIAU (NAV, FR) observed 1800 UTC 22 January 2019
Temperature: 5.0°C (41°F)
Dewpoint: 4.0°C (39°F) [RH = 93%]
Pressure (altimeter): 29.62 inches Hg (1003.0 mb)
Winds: from the WNW (300 degrees) at 6 MPH (5 knots; 2.6 m/s)
Visibility: 6 or more miles (10+ km)
Ceiling: 2900 feet AGL
Clouds: few clouds at 1300 feet AGL
scattered clouds at 2200 feet AGL
broken clouds at 2900 feet AGL
Weather: no significant weather observed at this time

METAR text: LFRJ 221730Z AUTO 29007KT 9999 FEW025/// SCT042/// BKN070/// ///TCU 06/04 Q1004 TEMPO 4000 SHRA
Conditions at: LFRJ (LANDIVISIAU (NAV, FR) observed 1730 UTC 22 January 2019
Temperature: 6.0°C (43°F)
Dewpoint: 4.0°C (39°F) [RH = 87%]
Pressure (altimeter): 29.65 inches Hg (1004.0 mb)
Winds: from the WNW (290 degrees) at 8 MPH (7 knots; 3.6 m/s)
Visibility: 6 or more miles (10+ km)
Ceiling: 7000 feet AGL
Clouds: few clouds at 2500 feet AGL
scattered clouds at 4200 feet AGL
broken clouds at 7000 feet AGL
Weather: no significant weather observed at this time

METAR text: LFRJ 221700Z AUTO 29009KT 260V320 9999 -RA SCT022 SCT031 BKN039 06/04 Q1004 TEMPO 4000 SHRA BKN012CB
Conditions at: LFRJ (LANDIVISIAU (NAV, FR) observed 1700 UTC 22 January 2019
Temperature: 6.0°C (43°F)
Dewpoint: 4.0°C (39°F) [RH = 87%]
Pressure (altimeter): 29.65 inches Hg (1004.0 mb)
Winds: from the WNW (290 degrees) at 10 MPH (9 knots; 4.6 m/s)
Visibility: 6 or more miles (10+ km)
Ceiling: 3900 feet AGL
Clouds: scattered clouds at 2200 feet AGL
scattered clouds at 3100 feet AGL
broken clouds at 3900 feet AGL
Weather: -RA  (light rain)

METAR text: LFRJ 221630Z AUTO 29008KT 9999 SCT022 BKN027 BKN039 06/04 Q1004 TEMPO 4000 SHRA BKN012CB
Conditions at: LFRJ (LANDIVISIAU (NAV, FR) observed 1630 UTC 22 January 2019
Temperature: 6.0°C (43°F)
Dewpoint: 4.0°C (39°F) [RH = 87%]
Pressure (altimeter): 29.65 inches Hg (1004.0 mb)
Winds: from the WNW (290 degrees) at 9 MPH (8 knots; 4.1 m/s)
Visibility: 6 or more miles (10+ km)
Ceiling: 2700 feet AGL
Clouds: scattered clouds at 2200 feet AGL
broken clouds at 2700 feet AGL
broken clouds at 3900 feet AGL
Weather: no significant weather observed at this time

METAR text: LFRJ 221600Z AUTO 27010KT 9999 FEW016/// OVC110/// ///TCU 06/05 Q1004 TEMPO 4000 SHRA BKN012CB
Conditions at: LFRJ (LANDIVISIAU (NAV, FR) observed 1600 UTC 22 January 2019
Temperature: 6.0°C (43°F)
Dewpoint: 5.0°C (41°F) [RH = 93%]
Pressure (altimeter): 29.65 inches Hg (1004.0 mb)
Winds: from the W (270 degrees) at 12 MPH (10 knots; 5.1 m/s)
Visibility: 6 or more miles (10+ km)
Ceiling: 11000 feet AGL
Clouds: few clouds at 1600 feet AGL
overcast cloud deck at 11000 feet AGL
Weather: no significant weather observed at this time

METAR text: LFRJ 221530Z AUTO 30008KT 9999 SCT022/// SCT029/// BKN110/// ///TCU 06/04 Q1004 TEMPO 4000 SHRA BKN012CB
Conditions at: LFRJ (LANDIVISIAU (NAV, FR) observed 1530 UTC 22 January 2019
Temperature: 6.0°C (43°F)
Dewpoint: 4.0°C (39°F) [RH = 87%]
Pressure (altimeter): 29.65 inches Hg (1004.0 mb)
Winds: from the WNW (300 degrees) at 9 MPH (8 knots; 4.1 m/s)
Visibility: 6 or more miles (10+ km)
Ceiling: 11000 feet AGL
Clouds: scattered clouds at 2200 feet AGL
scattered clouds at 2900 feet AGL
broken clouds at 11000 feet AGL
Weather: no significant weather observed at this time

METAR text: LFRJ 221500Z AUTO 30013KT 9999 FEW020/// SCT092/// BKN110/// ///TCU 07/04 Q1005 TEMPO 4000 SHRA BKN012CB
Conditions at: LFRJ (LANDIVISIAU (NAV, FR) observed 1500 UTC 22 January 2019
Temperature: 7.0°C (45°F)
Dewpoint: 4.0°C (39°F) [RH = 81%]
Pressure (altimeter): 29.68 inches Hg (1005.0 mb)
Winds: from the WNW (300 degrees) at 15 MPH (13 knots; 6.7 m/s)
Visibility: 6 or more miles (10+ km)
Ceiling: 11000 feet AGL
Clouds: few clouds at 2000 feet AGL
scattered clouds at 9200 feet AGL
broken clouds at 11000 feet AGL
Weather: no significant weather observed at this time

METAR text: LFRJ 221430Z AUTO 29013KT 9999 SCT020/// BKN025/// BKN034/// ///TCU 08/05 Q1005 TEMPO 4000 SHRA BKN012CB
Conditions at: LFRJ (LANDIVISIAU (NAV, FR) observed 1430 UTC 22 January 2019
Temperature: 8.0°C (46°F)
Dewpoint: 5.0°C (41°F) [RH = 81%]
Pressure (altimeter): 29.68 inches Hg (1005.0 mb)
Winds: from the WNW (290 degrees) at 15 MPH (13 knots; 6.7 m/s)
Visibility: 6 or more miles (10+ km)
Ceiling: 2500 feet AGL
Clouds: scattered clouds at 2000 feet AGL
broken clouds at 2500 feet AGL
broken clouds at 3400 feet AGL
Weather: no significant weather observed at this time

METAR text: LFRJ 221400Z AUTO 28012KT 9999 SCT019/// SCT027/// BKN056/// ///TCU 08/05 Q1005 TEMPO 27015G25KT SHRA FEW010CB BKN020TCU
Conditions at: LFRJ (LANDIVISIAU (NAV, FR) observed 1400 UTC 22 January 2019
Temperature: 8.0°C (46°F)
Dewpoint: 5.0°C (41°F) [RH = 81%]
Pressure (altimeter): 29.68 inches Hg (1005.0 mb)
Winds: from the W (280 degrees) at 14 MPH (12 knots; 6.2 m/s)
Visibility: 6 or more miles (10+ km)
Ceiling: 5600 feet AGL
Clouds: scattered clouds at 1900 feet AGL
scattered clouds at 2700 feet AGL
broken clouds at 5600 feet AGL
Weather: no significant weather observed at this time

METAR text: LFRJ 221330Z AUTO 30003KT 230V330 9999 FEW008/// BKN020/// OVC029/// ///CB 07/05 Q1005 TEMPO 27015G25KT SHRA
Conditions at: LFRJ (LANDIVISIAU (NAV, FR) observed 1330 UTC 22 January 2019
Temperature: 7.0°C (45°F)
Dewpoint: 5.0°C (41°F) [RH = 87%]
Pressure (altimeter): 29.68 inches Hg (1005.0 mb)
Winds: from the WNW (300 degrees) at 3 MPH (3 knots; 1.5 m/s)
Visibility: 6 or more miles (10+ km)
Ceiling: 2000 feet AGL
Clouds: few clouds at 800 feet AGL
broken clouds at 2000 feet AGL
overcast cloud deck at 2900 feet AGL
Weather: no significant weather observed at this time

METAR text: LFRJ 221300Z AUTO 22007KT 190V260 9999 FEW015/// BKN025/// BKN037/// ///CB 07/06 Q1006 TEMPO 27015G25KT SHRA
Conditions at: LFRJ (LANDIVISIAU (NAV, FR) observed 1300 UTC 22 January 2019
Temperature: 7.0°C (45°F)
Dewpoint: 6.0°C (43°F) [RH = 93%]
Pressure (altimeter): 29.70 inches Hg (1006.0 mb)
Winds: from the SW (220 degrees) at 8 MPH (7 knots; 3.6 m/s)
Visibility: 6 or more miles (10+ km)
Ceiling: 2500 feet AGL
Clouds: few clouds at 1500 feet AGL
broken clouds at 2500 feet AGL
broken clouds at 3700 feet AGL
Weather: no significant weather observed at this time

METAR text: LFRJ 221230Z AUTO 23004KT 9999 FEW014/// SCT019/// BKN025/// ///TCU 06/05 Q1007 TEMPO 27015G25KT SHRA FEW010CB BKN020TCU
Conditions at: LFRJ (LANDIVISIAU (NAV, FR) observed 1230 UTC 22 January 2019
Temperature: 6.0°C (43°F)
Dewpoint: 5.0°C (41°F) [RH = 93%]
Pressure (altimeter): 29.73 inches Hg (1007.0 mb)
Winds: from the SW (230 degrees) at 5 MPH (4 knots; 2.1 m/s)
Visibility: 6 or more miles (10+ km)
Ceiling: 2500 feet AGL
Clouds: few clouds at 1400 feet AGL
scattered clouds at 1900 feet AGL
broken clouds at 2500 feet AGL
Weather: no significant weather observed at this time

METAR text: LFRJ 221200Z AUTO 30003KT 9999 FEW014/// SCT022/// BKN029/// ///CB 06/04 Q1007 TEMPO 27015G25KT SHRA
Conditions at: LFRJ (LANDIVISIAU (NAV, FR) observed 1200 UTC 22 January 2019
Temperature: 6.0°C (43°F)
Dewpoint: 4.0°C (39°F) [RH = 87%]
Pressure (altimeter): 29.73 inches Hg (1007.0 mb)
Winds: from the WNW (300 degrees) at 3 MPH (3 knots; 1.5 m/s)
Visibility: 6 or more miles (10+ km)
Ceiling: 2900 feet AGL
Clouds: few clouds at 1400 feet AGL
scattered clouds at 2200 feet AGL
broken clouds at 2900 feet AGL
Weather: no significant weather observed at this time

METAR text: LFRJ 221130Z AUTO 31010KT 6000 -RA FEW013/// BKN022/// BKN027/// ///CB 05/04 Q1008 TEMPO 27015G25KT SHRA
Conditions at: LFRJ (LANDIVISIAU (NAV, FR) observed 1130 UTC 22 January 2019
Temperature: 5.0°C (41°F)
Dewpoint: 4.0°C (39°F) [RH = 93%]
Pressure (altimeter): 29.76 inches Hg (1008.0 mb)
Winds: from the NW (310 degrees) at 12 MPH (10 knots; 5.1 m/s)
Visibility: 4 miles ( 6 km)
Ceiling: 2200 feet AGL
Clouds: few clouds at 1300 feet AGL
broken clouds at 2200 feet AGL
broken clouds at 2700 feet AGL
Weather: -RA  (light rain)

METAR text: LFRJ 221100Z AUTO 27006KT 9999 4900 RA FEW013/// BKN029/// BKN037/// ///CB 06/04 Q1008 TEMPO 31015G25KT
Conditions at: LFRJ (LANDIVISIAU (NAV, FR) observed 1100 UTC 22 January 2019
Temperature: 6.0°C (43°F)
Dewpoint: 4.0°C (39°F) [RH = 87%]
Pressure (altimeter): 29.76 inches Hg (1008.0 mb)
Winds: from the W (270 degrees) at 7 MPH (6 knots; 3.1 m/s)
Visibility: 6 or more miles (10+ km)
Ceiling: 2900 feet AGL
Clouds: few clouds at 1300 feet AGL
broken clouds at 2900 feet AGL
broken clouds at 3700 feet AGL
Weather: RA  (moderate rain)

METAR text: LFRJ 221030Z AUTO 25006KT 9999 FEW049 SCT066 BKN086 06/04 Q1008 TEMPO 31015G25KT SHRA FEW010CB BKN020TCU
Conditions at: LFRJ (LANDIVISIAU (NAV, FR) observed 1030 UTC 22 January 2019
Temperature: 6.0°C (43°F)
Dewpoint: 4.0°C (39°F) [RH = 87%]
Pressure (altimeter): 29.76 inches Hg (1008.0 mb)
Winds: from the WSW (250 degrees) at 7 MPH (6 knots; 3.1 m/s)
Visibility: 6 or more miles (10+ km)
Ceiling: 8600 feet AGL
Clouds: few clouds at 4900 feet AGL
scattered clouds at 6600 feet AGL
broken clouds at 8600 feet AGL
Weather: no significant weather observed at this time

METAR text: LFRJ 221000Z AUTO 25006KT 9999 FEW037 SCT078 OVC110 06/03 Q1008 TEMPO 31015G25KT SHRA FEW010CB BKN020TCU
Conditions at: LFRJ (LANDIVISIAU (NAV, FR) observed 1000 UTC 22 January 2019
Temperature: 6.0°C (43°F)
Dewpoint: 3.0°C (37°F) [RH = 81%]
Pressure (altimeter): 29.76 inches Hg (1008.0 mb)
Winds: from the WSW (250 degrees) at 7 MPH (6 knots; 3.1 m/s)
Visibility: 6 or more miles (10+ km)
Ceiling: 11000 feet AGL
Clouds: few clouds at 3700 feet AGL
scattered clouds at 7800 feet AGL
overcast cloud deck at 11000 feet AGL
Weather: no significant weather observed at this time

METAR text: LFRJ 220930Z AUTO 24007KT 9999 SCT029/// BKN036/// BKN047/// ///TCU 06/03 Q1009 TEMPO 31015G25KT SHRA FEW010CB BKN020TCU
Conditions at: LFRJ (LANDIVISIAU (NAV, FR) observed 0930 UTC 22 January 2019
Temperature: 6.0°C (43°F)
Dewpoint: 3.0°C (37°F) [RH = 81%]
Pressure (altimeter): 29.79 inches Hg (1009.0 mb)
Winds: from the WSW (240 degrees) at 8 MPH (7 knots; 3.6 m/s)
Visibility: 6 or more miles (10+ km)
Ceiling: 3600 feet AGL
Clouds: scattered clouds at 2900 feet AGL
broken clouds at 3600 feet AGL
broken clouds at 4700 feet AGL
Weather: no significant weather observed at this time

METAR text: LFRJ 220900Z AUTO 27005KT 9999 FEW034 OVC120 05/02 Q1009 TEMPO 31015G25KT SHRA FEW010CB BKN020TCU
Conditions at: LFRJ (LANDIVISIAU (NAV, FR) observed 0900 UTC 22 January 2019
Temperature: 5.0°C (41°F)
Dewpoint: 2.0°C (36°F) [RH = 81%]
Pressure (altimeter): 29.79 inches Hg (1009.0 mb)
Winds: from the W (270 degrees) at 6 MPH (5 knots; 2.6 m/s)
Visibility: 6 or more miles (10+ km)
Ceiling: 12000 feet AGL
Clouds: few clouds at 3400 feet AGL
overcast cloud deck at 12000 feet AGL
Weather: no significant weather observed at this time

METAR text: LFRJ 220830Z AUTO 27005KT 9999 FEW035 SCT120 05/02 Q1009 TEMPO 31015G25KT SHRA FEW010CB BKN020TCU
Conditions at: LFRJ (LANDIVISIAU (NAV, FR) observed 0830 UTC 22 January 2019
Temperature: 5.0°C (41°F)
Dewpoint: 2.0°C (36°F) [RH = 81%]
Pressure (altimeter): 29.79 inches Hg (1009.0 mb)
Winds: from the W (270 degrees) at 6 MPH (5 knots; 2.6 m/s)
Visibility: 6 or more miles (10+ km)
Ceiling: at least 12,000 feet AGL
Clouds: few clouds at 3500 feet AGL
scattered clouds at 12000 feet AGL
Weather: no significant weather observed at this time

Forecast for: LFRJ (LANDIVISIAU (NAV, FR)
Text: TAF LFRJ 232000Z 2321/2406 36006KT 9999 SCT030 BKN040
Forecast period: 2100 UTC 23 January 2019 to 0300 UTC 24 January 2019
Forecast type: FROM: standard forecast or significant change
Winds: from the N (360 degrees) at 7 MPH (6 knots; 3.1 m/s)
Visibility: 6 or more miles 10+ km)
Ceiling: 4000 feet AGL
Clouds: scattered clouds at 3000 feet AGL
broken clouds at 4000 feet AGL
Weather: no significant weather forecast for this period
Text: TEMPO 2321/2322 5000 -SHRA SCT016TCU
Forecast period: 2100 to 2200 UTC 23 January 2019
Forecast type: TEMPORARY: The following changes expected for less than half the time period
Visibility: 3 miles (5 km)
Ceiling: at least 12,000 feet AGL
Clouds: scattered clouds at 1600 feet AGL
Weather: -SHRA  (light rain showers)
Text: BECMG 2403/2405 VRB02KT 4000 -RA OVC006
Forecast period: 0300 to 0600 UTC 24 January 2019
Forecast type: BECOMING: Conditions expected to become as follows by 0500 UTC 24 January 2019
Winds: variable direction winds at 2 MPH (2 knots; 1.0 m/s)
Visibility: 2.49 miles (4.01 km)
Ceiling: 600 feet AGL
Clouds: overcast cloud deck at 600 feet AGL
Weather: -RA  (light rain)